Terminal Aerodrome Forecast
Issued by NWS

Home | Current Version | Previous Version | Text Only | Print | Product List | Glossary On
Versions: 1 2 3 4 5 6 7 8 9 10 11 12 13 14 15 16 17 18 19 20 21 22 23 24
000
FTUS43 KFGF 211720
TAFDVL
TAF
KDVL 211720Z 2118/2218 17015KT P6SM SCT250
     FM212200 21012KT P6SM SCT150
     FM212300 27012KT P6SM SCT110
     FM220300 33009KT P6SM FEW200
     FM221400 03012G21KT P6SM BKN090=

USA.gov is the U.S. government's official web portal to all federal, state and local government web resources and services.